MST,Max TemperatureF,Mean TemperatureF,Min TemperatureF,Max Dew PointF,MeanDew PointF,Min DewpointF,Max Humidity, Mean Humidity, Min Humidity, Max Sea Level PressureIn, Mean Sea Level PressureIn, Min Sea Level PressureIn, Max VisibilityMiles, Mean VisibilityMiles, Min VisibilityMiles, Max Wind SpeedMPH, Mean Wind SpeedMPH, Max Gust SpeedMPH,PrecipitationIn, CloudCover, Events, WindDirDegrees
2013-1-1,33,18,3,18,11,1,92,78,48,30.22,30.15,30.07,10,10,10,17,6,21,0.00,1,,327
2013-1-2,34,16,-3,12,5,-7,86,69,34,30.24,30.18,30.12,10,10,10,15,6,,0.00,0,,323
2013-1-3,33,16,-2,14,4,-6,87,73,41,30.31,30.25,30.19,10,10,10,12,5,,0.00,0,,328
2013-1-4,36,16,-4,10,2,-8,86,62,24,30.30,30.23,30.16,10,10,10,12,7,,0.00,0,,322
2013-1-5,43,20,-2,8,3,-6,86,59,20,30.37,30.31,30.24,10,10,10,10,6,,0.00,0,,320
2013-1-6,42,20,-1,8,2,-6,82,50,22,30.36,30.24,30.07,10,10,10,20,8,24,0.00,0,,183
2013-1-7,46,32,17,19,14,8,86,48,32,30.07,30.01,29.95,10,10,10,16,9,22,0.00,1,,172
2013-1-8,47,28,9,19,15,7,90,62,27,30.29,30.11,30.01,10,10,10,23,10,29,0.00,0,,334
2013-1-9,51,30,9,18,12,7,91,58,19,30.44,30.31,30.18,10,10,10,14,6,18,0.00,0,,301
2013-1-10,54,31,8,19,12,6,90,54,16,30.15,29.93,29.73,10,10,10,14,5,20,0.00,1,,179
2013-1-11,38,22,6,27,6,-10,82,49,22,29.89,29.81,29.63,10,9,0,29,12,40,0.00,4,Snow,263
2013-1-12,25,10,-4,7,-3,-10,80,62,29,29.96,29.88,29.82,10,10,10,18,6,23,0.00,4,,324
2013-1-13,29,10,-10,5,-5,-16,84,55,20,30.00,29.93,29.86,10,10,10,12,4,16,0.00,1,,253
2013-1-14,27,14,-1,15,1,-7,89,66,28,30.06,29.95,29.85,10,10,1,16,5,22,0.00,3,Snow,334
2013-1-15,25,8,-8,3,-5,-14,85,61,28,30.33,30.19,30.06,10,10,10,20,7,28,0.00,0,,326
2013-1-16,43,22,0,15,5,-6,82,60,32,30.42,30.36,30.28,10,10,10,16,7,20,0.00,0,,324
2013-1-17,47,26,4,14,9,1,89,62,26,30.50,30.43,30.37,10,10,10,15,7,20,0.00,0,,298
2013-1-18,53,30,8,18,13,6,88,62,24,30.42,30.35,30.28,10,10,10,9,6,16,0.00,0,,323
2013-1-19,52,30,7,19,10,0,91,55,14,30.43,30.36,30.32,10,10,10,15,7,20,0.00,0,,323
2013-1-20,53,30,7,11,5,0,83,49,13,30.38,30.31,30.23,10,10,10,14,8,20,0.00,0,,324
2013-1-21,54,29,4,14,8,-1,84,51,16,30.36,30.30,30.25,10,10,10,15,7,20,0.00,0,,324
2013-1-22,60,36,11,13,8,0,80,45,12,30.40,30.35,30.29,10,10,10,13,7,21,0.00,0,,321
2013-1-23,63,35,7,12,8,3,83,44,10,30.46,30.39,30.32,10,10,10,12,6,,0.00,0,,320
2013-1-24,63,40,17,39,24,8,89,58,25,30.39,30.35,30.28,10,10,10,15,7,21,0.00,4,,313
2013-1-25,55,43,31,41,38,30,99,79,57,30.36,30.29,30.23,10,10,10,8,3,,0.00,6,,309
2013-1-26,52,46,40,48,41,39,100,88,76,30.22,30.06,29.93,10,10,5,20,5,31,0.06,8,Rain,162
2013-1-27,54,46,37,41,38,35,97,81,47,30.06,30.01,29.96,10,10,10,13,6,24,0.00,7,Rain,176
2013-1-28,51,40,29,39,30,19,96,72,40,29.96,29.86,29.80,10,10,3,21,9,31,0.00,5,Rain-Snow,224
2013-1-29,32,24,16,24,14,7,93,62,35,30.01,29.82,29.75,10,10,2,30,13,39,0.00,3,Snow,299
2013-1-30,41,24,7,20,15,5,91,64,33,30.24,30.16,30.02,10,10,1,22,12,30,0.00,1,Snow,330
2013-1-31,50,34,17,26,19,15,93,67,27,30.33,30.28,30.23,10,10,10,16,7,23,0.00,0,,322